Middle Haddam, Connecticut
Current Conditions -  °F | °C
As of 6:15 AM on Sunday 21 Dec 2014 (Local Time) from KSNC Reporting Station
Light Snow Light Snow  
Wind Chill: 26°   Ceiling: 1000
Heat Index: 32°   Visibility: 5mi
Dew Point: 30°   Wind: 7mph
Humidity: 93%   Direction: 350°N
Pressure: 30.26"   Gusts: NA
Location:  41.55°N, 72.55°W
Report Text: KSNC 211115Z AUTO 35006KT 5SM -SN SCT001 OVC010 00/M01 A3026 RMK AO2
Loading
Personal Weather Stations






























Interactive Weather Map New forecast layout! Learn more

10-Day Weather Forecast

Advertisements
Track Severe Weather on mobile